< < Back
Terminal Aerodrome Forecast


Current Version              Previous Versions:   1  2  3  4  5  6  7  8  9  

Terminal Aerodrome Forecast

959
FTUS44 KMOB 041120
TAFPNS
TAF
KPNS 041120Z 0412/0512 02004KT P6SM SKC
     FM041500 35004KT P6SM SCT250
     FM041800 21008KT P6SM VCTS SCT040CB SCT250
     FM050300 VRB03KT P6SM SCT250=



Latest METAR

519
SAUS70 KWBC 041800
MTRPNS
METAR KPNS 041753Z 14009KT 10SM SCT034 BKN043 31/23 A2999 RMK AO2 SLP156
T03110228 10322 20233 58006


USA.gov is the U.S. government's official web portal to all federal, state and local government web resources and services.